createdAt,value
2017-03-20T00:00:05.271Z,997.89
2017-03-20T00:01:05.812Z,997.87
2017-03-20T00:02:06.336Z,997.89
2017-03-20T00:03:06.878Z,997.92
2017-03-20T00:04:07.399Z,997.86
2017-03-20T00:05:07.938Z,997.93
2017-03-20T00:06:08.610Z,997.89
2017-03-20T00:07:09.006Z,997.93
2017-03-20T00:08:09.536Z,997.91
2017-03-20T00:09:10.072Z,997.91
2017-03-20T00:10:10.599Z,997.89
2017-03-20T00:11:11.134Z,997.90
2017-03-20T00:12:11.670Z,997.89
2017-03-20T00:13:12.211Z,997.98
2017-03-20T00:14:12.737Z,997.88
2017-03-20T00:15:13.281Z,997.87
2017-03-20T00:16:13.945Z,997.96
2017-03-20T00:17:14.340Z,997.92
2017-03-20T00:18:14.869Z,997.92
2017-03-20T00:19:15.399Z,997.92
2017-03-20T00:20:15.928Z,997.91
2017-03-20T00:21:16.469Z,997.90
2017-03-20T00:22:16.996Z,997.91
2017-03-20T00:23:17.538Z,997.92
2017-03-20T00:24:18.062Z,997.89
2017-03-20T00:25:18.599Z,997.83
2017-03-20T00:26:19.128Z,997.90
2017-03-20T00:27:19.673Z,997.84
2017-03-20T00:28:20.193Z,997.87
2017-03-20T00:29:20.727Z,997.90
2017-03-20T00:30:21.253Z,997.81
2017-03-20T00:31:21.794Z,997.81
2017-03-20T00:32:22.329Z,997.80
2017-03-20T00:33:22.863Z,997.74
2017-03-20T00:34:23.392Z,997.83
2017-03-20T00:35:23.928Z,997.77
2017-03-20T00:36:24.448Z,997.79
2017-03-20T00:37:25.001Z,997.76
2017-03-20T00:38:25.522Z,997.82
2017-03-20T00:39:26.058Z,997.76
2017-03-20T00:40:26.896Z,997.83
2017-03-20T00:41:27.141Z,997.89
2017-03-20T00:42:27.672Z,997.85
2017-03-20T00:43:28.214Z,997.93
2017-03-20T00:44:28.738Z,997.88
2017-03-20T00:45:29.275Z,997.94
2017-03-20T00:46:29.806Z,997.91
2017-03-20T00:47:30.345Z,997.89
2017-03-20T00:48:30.869Z,997.85
2017-03-20T00:49:31.406Z,997.87
2017-03-20T00:50:31.939Z,997.88
2017-03-20T00:51:32.465Z,997.90
2017-03-20T00:52:32.995Z,997.88
2017-03-20T00:53:33.542Z,997.90
2017-03-20T00:54:34.082Z,997.94
2017-03-20T00:55:34.599Z,997.91
2017-03-20T00:56:35.128Z,997.90
2017-03-20T00:57:35.669Z,997.91
2017-03-20T00:58:36.344Z,997.92
2017-03-20T00:59:36.746Z,997.93
2017-03-20T01:00:37.269Z,997.94
2017-03-20T01:01:37.814Z,997.90
2017-03-20T01:02:38.333Z,997.97
2017-03-20T01:03:38.873Z,997.92
2017-03-20T01:04:39.408Z,997.92
2017-03-20T01:05:39.933Z,997.90
2017-03-20T01:06:40.467Z,997.93
2017-03-20T01:07:41.003Z,997.92
2017-03-20T01:08:41.537Z,997.90
2017-03-20T01:09:42.087Z,997.93
2017-03-20T01:10:42.612Z,997.95
2017-03-20T01:11:43.140Z,997.90
2017-03-20T01:12:43.670Z,997.86
2017-03-20T01:13:44.343Z,997.90
2017-03-20T01:14:44.735Z,997.88
2017-03-20T01:15:45.272Z,997.83
2017-03-20T01:16:45.800Z,997.88
2017-03-20T01:17:46.336Z,997.84
2017-03-20T01:18:46.868Z,997.83
2017-03-20T01:19:47.407Z,997.80
2017-03-20T01:20:47.935Z,997.85
2017-03-20T01:21:48.483Z,997.78
2017-03-20T01:22:49.027Z,997.86
2017-03-20T01:23:49.694Z,997.76
2017-03-20T01:24:50.078Z,997.83
2017-03-20T01:25:50.612Z,997.83
2017-03-20T01:26:51.144Z,997.77
2017-03-20T01:27:51.969Z,997.82
2017-03-20T01:28:52.205Z,997.77
2017-03-20T01:29:52.750Z,997.79
2017-03-20T01:30:53.270Z,997.81
2017-03-20T01:31:53.809Z,997.73
2017-03-20T01:32:54.337Z,997.75
2017-03-20T01:33:55.013Z,997.77
2017-03-20T01:34:55.548Z,997.76
2017-03-20T01:35:56.092Z,997.79
2017-03-20T01:36:56.473Z,997.79
2017-03-20T01:37:57.003Z,997.86
2017-03-20T01:38:57.535Z,997.86
2017-03-20T01:39:58.067Z,997.88
2017-03-20T01:40:58.594Z,997.91
2017-03-20T01:41:59.143Z,997.87
2017-03-20T01:42:59.663Z,997.93
2017-03-20T01:44:00.200Z,997.80
2017-03-20T01:45:00.730Z,997.78
2017-03-20T01:46:01.261Z,997.82
2017-03-20T01:47:01.793Z,997.81
2017-03-20T01:48:02.334Z,997.74
2017-03-20T01:49:02.868Z,997.77
2017-03-20T01:50:03.393Z,997.78
2017-03-20T01:51:03.923Z,997.71
2017-03-20T01:52:04.455Z,997.77
2017-03-20T01:53:04.988Z,997.77
2017-03-20T01:54:05.525Z,997.79
2017-03-20T01:55:06.056Z,997.73
2017-03-20T01:56:06.586Z,997.72
2017-03-20T01:57:07.137Z,997.70
2017-03-20T01:58:07.663Z,997.68
2017-03-20T01:59:08.190Z,997.70
2017-03-20T02:00:08.736Z,997.67
2017-03-20T02:01:09.263Z,997.69
2017-03-20T02:02:09.816Z,997.73
2017-03-20T02:03:10.341Z,997.67
2017-03-20T02:04:10.886Z,997.64
2017-03-20T02:05:11.412Z,997.72
2017-03-20T02:06:11.946Z,997.70
2017-03-20T02:07:12.472Z,997.73
2017-03-20T02:08:13.011Z,997.61
2017-03-20T02:09:13.538Z,997.66
2017-03-20T02:10:14.075Z,997.68
2017-03-20T02:11:14.598Z,997.65
2017-03-20T02:12:15.134Z,997.64
2017-03-20T02:13:15.669Z,997.60
2017-03-20T02:14:16.203Z,997.60
2017-03-20T02:15:16.902Z,997.63
2017-03-20T02:16:17.272Z,997.64
2017-03-20T02:17:17.801Z,997.61
2017-03-20T02:18:18.336Z,997.61
2017-03-20T02:19:18.864Z,997.51
2017-03-20T02:20:19.398Z,997.53
2017-03-20T02:21:19.929Z,997.58
2017-03-20T02:22:20.463Z,997.55
2017-03-20T02:23:21.002Z,997.54
2017-03-20T02:24:21.535Z,997.58
2017-03-20T02:25:22.066Z,997.54
2017-03-20T02:26:22.605Z,997.58
2017-03-20T02:27:23.126Z,997.58
2017-03-20T02:28:23.672Z,997.48
2017-03-20T02:29:24.191Z,997.48
2017-03-20T02:30:24.727Z,997.52
2017-03-20T02:31:25.275Z,997.57
2017-03-20T02:32:25.810Z,997.54
2017-03-20T02:33:26.327Z,997.48
2017-03-20T02:34:26.864Z,997.54
2017-03-20T02:35:27.394Z,997.52
2017-03-20T02:36:27.929Z,997.54
2017-03-20T02:37:28.457Z,997.51
2017-03-20T02:38:28.995Z,997.55
2017-03-20T02:39:29.523Z,997.51
2017-03-20T02:40:30.070Z,997.55
2017-03-20T02:41:30.599Z,997.51
2017-03-20T02:42:31.143Z,997.51
2017-03-20T02:43:31.678Z,997.51
2017-03-20T02:44:32.213Z,997.51
2017-03-20T02:45:32.747Z,997.52
2017-03-20T02:46:33.289Z,997.56
2017-03-20T02:47:33.819Z,997.51
2017-03-20T02:48:34.359Z,997.56
2017-03-20T02:49:34.888Z,997.61
2017-03-20T02:50:35.419Z,997.61
2017-03-20T02:51:35.950Z,997.56
2017-03-20T02:52:36.489Z,997.62
2017-03-20T02:53:37.016Z,997.62
2017-03-20T02:54:37.549Z,997.70
2017-03-20T02:55:38.085Z,997.65
2017-03-20T02:56:38.614Z,997.69
2017-03-20T02:57:39.149Z,997.70
2017-03-20T02:58:39.680Z,997.64
2017-03-20T02:59:40.213Z,997.64
2017-03-20T03:00:40.753Z,997.65
2017-03-20T03:01:41.276Z,997.63
2017-03-20T03:02:41.957Z,997.65
2017-03-20T03:03:42.344Z,997.66
2017-03-20T03:04:42.892Z,997.66
2017-03-20T03:05:43.411Z,997.64
2017-03-20T03:06:43.948Z,997.70
2017-03-20T03:07:44.477Z,997.66
2017-03-20T03:08:45.024Z,997.66
2017-03-20T03:09:45.557Z,997.69
2017-03-20T03:10:46.091Z,997.68
2017-03-20T03:11:46.609Z,997.77
2017-03-20T03:12:47.150Z,997.71
2017-03-20T03:13:47.672Z,997.76
2017-03-20T03:14:48.211Z,997.82
2017-03-20T03:15:48.735Z,997.77
2017-03-20T03:16:49.282Z,997.75
2017-03-20T03:17:49.807Z,997.74
2017-03-20T03:18:50.344Z,997.84
2017-03-20T03:19:50.872Z,997.76
2017-03-20T03:20:51.409Z,997.83
2017-03-20T03:21:51.938Z,997.93
2017-03-20T03:22:52.466Z,997.82
2017-03-20T03:23:53.009Z,997.86
2017-03-20T03:24:53.546Z,997.89
2017-03-20T03:25:54.081Z,997.89
2017-03-20T03:26:54.613Z,997.93
2017-03-20T03:27:55.144Z,997.90
2017-03-20T03:28:55.678Z,997.89
2017-03-20T03:29:56.215Z,997.96
2017-03-20T03:30:56.747Z,997.94
2017-03-20T03:31:57.282Z,997.91
2017-03-20T03:32:57.812Z,997.96
2017-03-20T03:33:58.346Z,997.96
2017-03-20T03:34:58.883Z,997.99
2017-03-20T03:35:59.410Z,997.96
2017-03-20T03:36:59.943Z,997.93
2017-03-20T03:38:00.477Z,997.99
2017-03-20T03:39:01.011Z,998.03
2017-03-20T03:40:01.542Z,997.96
2017-03-20T03:41:02.075Z,998.03
2017-03-20T03:42:02.608Z,998.09
2017-03-20T03:43:03.148Z,998.07
2017-03-20T03:44:03.675Z,997.98
2017-03-20T03:45:04.207Z,998.06
2017-03-20T03:46:04.738Z,998.06
2017-03-20T03:47:05.274Z,998.01
2017-03-20T03:48:05.806Z,998.11
2017-03-20T03:49:06.343Z,998.10
2017-03-20T03:50:07.222Z,998.05
2017-03-20T03:51:07.407Z,998.08
2017-03-20T03:52:07.942Z,998.17
2017-03-20T03:53:08.468Z,998.10
2017-03-20T03:54:09.003Z,998.13
2017-03-20T03:55:09.532Z,998.05
2017-03-20T03:56:10.066Z,998.01
2017-03-20T03:57:10.600Z,998.10
2017-03-20T03:58:11.141Z,998.09
2017-03-20T03:59:11.662Z,998.01
2017-03-20T04:00:12.195Z,998.06
2017-03-20T04:01:12.725Z,998.06
2017-03-20T04:02:13.262Z,998.09
2017-03-20T04:03:13.795Z,998.09
2017-03-20T04:04:14.333Z,998.07
2017-03-20T04:05:14.873Z,998.09
2017-03-20T04:06:15.409Z,998.06
2017-03-20T04:07:16.093Z,998.05
2017-03-20T04:08:16.478Z,998.05
2017-03-20T04:09:17.010Z,998.02
2017-03-20T04:10:17.545Z,998.08
2017-03-20T04:11:18.222Z,998.08
2017-03-20T04:12:18.608Z,998.04
2017-03-20T04:13:19.144Z,998.01
2017-03-20T04:14:19.674Z,998.00
2017-03-20T04:15:20.205Z,997.96
2017-03-20T04:16:20.739Z,998.01
2017-03-20T04:17:21.270Z,997.94
2017-03-20T04:18:21.812Z,997.91
2017-03-20T04:19:22.339Z,997.85
2017-03-20T04:20:22.870Z,997.90
2017-03-20T04:21:23.402Z,997.88
2017-03-20T04:22:23.947Z,997.85
2017-03-20T04:23:24.471Z,997.87
2017-03-20T04:24:25.004Z,997.84
2017-03-20T04:25:25.546Z,997.86
2017-03-20T04:26:26.073Z,997.89
2017-03-20T04:27:26.606Z,997.84
2017-03-20T04:28:27.140Z,997.83
2017-03-20T04:29:27.671Z,997.78
2017-03-20T04:30:28.204Z,997.78
2017-03-20T04:31:28.740Z,997.73
2017-03-20T04:32:29.275Z,997.78
2017-03-20T04:33:29.809Z,997.82
2017-03-20T04:34:30.343Z,997.78
2017-03-20T04:35:30.870Z,997.80
2017-03-20T04:36:31.409Z,997.75
2017-03-20T04:37:32.242Z,997.79
2017-03-20T04:38:32.470Z,997.80
2017-03-20T04:39:33.006Z,997.75
2017-03-20T04:40:33.541Z,997.82
2017-03-20T04:41:34.067Z,997.83
2017-03-20T04:42:34.604Z,997.79
2017-03-20T04:43:35.134Z,997.82
2017-03-20T04:44:35.672Z,997.85
2017-03-20T04:45:36.368Z,997.87
2017-03-20T04:46:36.755Z,997.84
2017-03-20T04:47:37.293Z,997.86
2017-03-20T04:48:37.970Z,997.86
2017-03-20T04:49:38.354Z,997.80
2017-03-20T04:50:38.885Z,997.80
2017-03-20T04:51:39.423Z,997.90
2017-03-20T04:52:39.955Z,997.88
2017-03-20T04:53:40.490Z,997.81
2017-03-20T04:54:41.020Z,997.80
2017-03-20T04:55:41.550Z,997.83
2017-03-20T04:56:42.082Z,997.89
2017-03-20T04:57:42.614Z,997.76
2017-03-20T04:58:43.148Z,997.79
2017-03-20T04:59:43.677Z,997.73
2017-03-20T05:00:44.217Z,997.73
2017-03-20T05:01:44.754Z,997.76
2017-03-20T05:02:45.286Z,997.78
2017-03-20T05:03:45.819Z,997.79
2017-03-20T05:04:46.353Z,997.87
2017-03-20T05:05:46.888Z,997.87
2017-03-20T05:06:47.431Z,997.88
2017-03-20T05:07:47.963Z,997.84
2017-03-20T05:08:48.497Z,997.87
2017-03-20T05:09:49.179Z,997.79
2017-03-20T05:10:49.561Z,997.82
2017-03-20T05:11:50.096Z,997.84
2017-03-20T05:12:50.628Z,997.88
2017-03-20T05:13:51.162Z,997.87
2017-03-20T05:14:51.693Z,997.96
2017-03-20T05:15:52.235Z,997.98
2017-03-20T05:16:52.760Z,998.00
2017-03-20T05:17:53.445Z,998.06
2017-03-20T05:18:53.841Z,998.13
2017-03-20T05:19:54.363Z,998.13
2017-03-20T05:20:54.893Z,998.18
2017-03-20T05:21:55.425Z,998.11
2017-03-20T05:22:55.960Z,998.15
2017-03-20T05:23:56.499Z,998.08
2017-03-20T05:24:57.178Z,998.17
2017-03-20T05:25:57.567Z,998.22
2017-03-20T05:26:58.103Z,998.18
2017-03-20T05:27:58.650Z,998.21
2017-03-20T05:28:59.182Z,998.21
2017-03-20T05:29:59.709Z,998.20
2017-03-20T05:31:00.238Z,998.21
2017-03-20T05:32:00.773Z,998.21
2017-03-20T05:33:01.484Z,998.18
2017-03-20T05:34:01.830Z,998.19
2017-03-20T05:35:02.367Z,998.19
2017-03-20T05:36:02.894Z,998.16
2017-03-20T05:37:03.426Z,998.17
2017-03-20T05:38:03.960Z,998.18
2017-03-20T05:39:04.495Z,998.17
2017-03-20T05:40:05.020Z,998.14
2017-03-20T05:41:05.698Z,998.14
2017-03-20T05:42:06.085Z,998.11
2017-03-20T05:43:06.614Z,998.13
2017-03-20T05:44:07.152Z,998.11
2017-03-20T05:45:07.681Z,998.16
2017-03-20T05:46:08.215Z,998.12
2017-03-20T05:47:08.747Z,998.15
2017-03-20T05:48:09.293Z,998.18
2017-03-20T05:49:09.821Z,998.15
2017-03-20T05:50:10.348Z,998.12
2017-03-20T05:51:10.885Z,998.10
2017-03-20T05:52:11.407Z,998.14
2017-03-20T05:53:11.945Z,998.18
2017-03-20T05:54:12.479Z,998.17
2017-03-20T05:55:13.009Z,998.20
2017-03-20T05:56:13.551Z,998.18
2017-03-20T05:57:14.073Z,998.24
2017-03-20T05:58:14.604Z,998.19
2017-03-20T05:59:15.138Z,998.21
2017-03-20T06:00:15.668Z,998.26
2017-03-20T06:01:16.206Z,998.27
2017-03-20T06:02:16.733Z,998.21
2017-03-20T06:03:17.268Z,998.31
2017-03-20T06:04:17.803Z,998.34
2017-03-20T06:05:18.332Z,998.34
2017-03-20T06:06:18.869Z,998.34
2017-03-20T06:07:19.405Z,998.35
2017-03-20T06:08:19.948Z,998.31
2017-03-20T06:09:20.489Z,998.28
2017-03-20T06:10:21.019Z,998.27
2017-03-20T06:11:21.550Z,998.28
2017-03-20T06:12:22.264Z,998.32
2017-03-20T06:13:22.618Z,998.32
2017-03-20T06:14:23.146Z,998.32
2017-03-20T06:15:23.683Z,998.30
2017-03-20T06:16:24.213Z,998.35
2017-03-20T06:17:24.749Z,998.31
2017-03-20T06:18:25.289Z,998.27
2017-03-20T06:19:25.815Z,998.29
2017-03-20T06:20:26.518Z,998.31
2017-03-20T06:21:26.874Z,998.27
2017-03-20T06:22:27.413Z,998.26
2017-03-20T06:23:27.938Z,998.27
2017-03-20T06:24:28.467Z,998.29
2017-03-20T06:25:29.005Z,998.30
2017-03-20T06:26:29.539Z,998.27
2017-03-20T06:27:30.095Z,998.27
2017-03-20T06:28:30.598Z,998.25
2017-03-20T06:29:31.133Z,998.26
2017-03-20T06:30:31.674Z,998.21
2017-03-20T06:31:32.199Z,998.19
2017-03-20T06:32:32.733Z,998.22
2017-03-20T06:33:33.262Z,998.20
2017-03-20T06:34:33.792Z,998.23
2017-03-20T06:35:34.327Z,998.26
2017-03-20T06:36:34.870Z,998.25
2017-03-20T06:37:35.392Z,998.22
2017-03-20T06:38:36.075Z,998.29
2017-03-20T06:39:36.603Z,998.24
2017-03-20T06:40:37.147Z,998.21
2017-03-20T06:41:37.528Z,998.17
2017-03-20T06:42:38.054Z,998.16
2017-03-20T06:43:38.585Z,998.13
2017-03-20T06:44:39.112Z,998.14
2017-03-20T06:45:39.647Z,998.13
2017-03-20T06:46:40.186Z,998.13
2017-03-20T06:47:40.725Z,998.08
2017-03-20T06:48:41.261Z,998.10
2017-03-20T06:49:41.798Z,998.13
2017-03-20T06:50:42.328Z,998.11
2017-03-20T06:51:42.862Z,998.13
2017-03-20T06:52:43.400Z,998.13
2017-03-20T06:53:43.932Z,998.11
2017-03-20T06:54:44.464Z,998.14
2017-03-20T06:55:45.002Z,998.16
2017-03-20T06:56:45.531Z,998.16
2017-03-20T06:57:46.062Z,998.17
2017-03-20T06:58:46.593Z,998.11
2017-03-20T06:59:47.134Z,998.14
2017-03-20T07:00:47.968Z,998.16
2017-03-20T07:01:48.198Z,998.10
2017-03-20T07:02:48.884Z,998.11
2017-03-20T07:03:49.263Z,998.11
2017-03-20T07:04:49.796Z,998.13
2017-03-20T07:05:50.332Z,998.13
2017-03-20T07:06:50.862Z,998.12
2017-03-20T07:07:51.444Z,998.08
2017-03-20T07:08:51.926Z,998.14
2017-03-20T07:09:52.460Z,998.18
2017-03-20T07:10:52.990Z,998.15
2017-03-20T07:11:53.526Z,998.21
2017-03-20T07:12:54.066Z,998.14
2017-03-20T07:13:54.595Z,998.15
2017-03-20T07:14:55.129Z,998.15
2017-03-20T07:15:55.659Z,998.19
2017-03-20T07:16:56.226Z,998.25
2017-03-20T07:17:56.724Z,998.26
2017-03-20T07:18:57.264Z,998.28
2017-03-20T07:19:57.793Z,998.29
2017-03-20T07:20:58.326Z,998.30
2017-03-20T07:21:58.857Z,998.30
2017-03-20T07:22:59.389Z,998.31
2017-03-20T07:23:59.916Z,998.35
2017-03-20T07:25:00.599Z,998.33
2017-03-20T07:26:00.978Z,998.36
2017-03-20T07:27:01.524Z,998.39
2017-03-20T07:28:02.052Z,998.37
2017-03-20T07:29:02.601Z,998.38
2017-03-20T07:30:03.119Z,998.35
2017-03-20T07:31:03.652Z,998.36
2017-03-20T07:32:04.336Z,998.41
2017-03-20T07:33:04.874Z,998.44
2017-03-20T07:34:05.255Z,998.42
2017-03-20T07:35:05.787Z,998.39
2017-03-20T07:36:06.321Z,998.40
2017-03-20T07:37:06.856Z,998.42
2017-03-20T07:38:07.419Z,998.44
2017-03-20T07:39:07.935Z,998.45
2017-03-20T07:40:08.595Z,998.45
2017-03-20T07:41:09.132Z,998.41
2017-03-20T07:42:09.520Z,998.40
2017-03-20T07:43:10.046Z,998.48
2017-03-20T07:44:10.583Z,998.46
2017-03-20T07:45:11.117Z,998.46
2017-03-20T07:46:11.649Z,998.45
2017-03-20T07:47:12.178Z,998.39
2017-03-20T07:48:12.714Z,998.42
2017-03-20T07:49:13.394Z,998.40
2017-03-20T07:50:13.775Z,998.33
2017-03-20T07:51:14.307Z,998.35
2017-03-20T07:52:14.838Z,998.36
2017-03-20T07:53:15.373Z,998.30
2017-03-20T07:54:15.908Z,998.37
2017-03-20T07:55:16.441Z,998.35
2017-03-20T07:56:16.969Z,998.37
2017-03-20T07:57:17.507Z,998.31
2017-03-20T07:58:18.036Z,998.33
2017-03-20T07:59:18.575Z,998.30
2017-03-20T08:00:19.254Z,998.34
2017-03-20T08:01:19.645Z,998.28
2017-03-20T08:02:20.188Z,998.24
2017-03-20T08:03:20.722Z,998.24
2017-03-20T08:04:21.262Z,998.20
2017-03-20T08:05:21.797Z,998.25
2017-03-20T08:06:22.325Z,998.21
2017-03-20T08:07:22.858Z,998.21
2017-03-20T08:08:23.395Z,998.23
2017-03-20T08:09:23.934Z,998.24
2017-03-20T08:10:24.470Z,998.25
2017-03-20T08:11:25.005Z,998.26
2017-03-20T08:12:25.543Z,998.31
2017-03-20T08:13:26.077Z,998.37
2017-03-20T08:14:26.617Z,998.35
2017-03-20T08:15:27.144Z,998.30
2017-03-20T08:16:27.674Z,998.34
2017-03-20T08:17:28.206Z,998.29
2017-03-20T08:18:28.742Z,998.34
2017-03-20T08:19:29.272Z,998.31
2017-03-20T08:20:29.805Z,998.36
2017-03-20T08:21:30.526Z,998.40
2017-03-20T08:22:30.877Z,998.33
2017-03-20T08:23:31.416Z,998.35
2017-03-20T08:24:31.930Z,998.35
2017-03-20T08:25:32.464Z,998.36
2017-03-20T08:26:34.497Z,998.29
2017-03-20T08:27:33.529Z,998.28
2017-03-20T08:28:34.066Z,998.31
2017-03-20T08:29:34.608Z,998.33
2017-03-20T08:31:35.663Z,998.29
2017-03-20T08:32:36.201Z,998.23
2017-03-20T08:33:36.733Z,998.29
2017-03-20T08:34:37.266Z,998.26
2017-03-20T08:35:37.796Z,998.25
2017-03-20T08:36:38.334Z,998.24
2017-03-20T08:37:38.862Z,998.25
2017-03-20T08:38:39.392Z,998.23
2017-03-20T08:39:39.929Z,998.23
2017-03-20T08:40:40.462Z,998.17
2017-03-20T08:41:40.988Z,998.21
2017-03-20T08:42:41.697Z,998.23
2017-03-20T08:43:42.068Z,998.19
2017-03-20T08:44:42.593Z,998.26
2017-03-20T08:45:43.124Z,998.29
2017-03-20T08:46:43.656Z,998.29
2017-03-20T08:47:44.190Z,998.29
2017-03-20T08:48:44.725Z,998.34
2017-03-20T08:49:45.272Z,998.38
2017-03-20T08:50:45.803Z,998.34
2017-03-20T08:51:46.341Z,998.33
2017-03-20T08:52:46.877Z,998.34
2017-03-20T08:53:47.409Z,998.31
2017-03-20T08:54:47.944Z,998.37
2017-03-20T08:55:48.478Z,998.39
2017-03-20T08:56:49.011Z,998.35
2017-03-20T08:57:49.696Z,998.33
2017-03-20T08:58:50.081Z,998.38
2017-03-20T08:59:50.630Z,998.34
2017-03-20T09:00:51.154Z,998.36
2017-03-20T09:01:51.698Z,998.42
2017-03-20T09:02:52.236Z,998.40
2017-03-20T09:03:52.774Z,998.40
2017-03-20T09:04:53.454Z,998.41
2017-03-20T09:05:53.844Z,998.37
2017-03-20T09:06:54.389Z,998.35
2017-03-20T09:07:54.926Z,998.40
2017-03-20T09:08:55.458Z,998.42
2017-03-20T09:09:56.004Z,998.45
2017-03-20T09:10:56.527Z,998.45
2017-03-20T09:11:57.063Z,998.48
2017-03-20T09:12:57.594Z,998.48
2017-03-20T09:13:58.119Z,998.46
2017-03-20T09:14:58.799Z,998.47
2017-03-20T09:15:59.188Z,998.38
2017-03-20T09:16:59.718Z,998.43
2017-03-20T09:18:00.252Z,998.44
2017-03-20T09:19:00.787Z,998.45
2017-03-20T09:20:01.319Z,998.53
2017-03-20T09:21:01.852Z,998.51
2017-03-20T09:22:02.384Z,998.46
2017-03-20T09:23:02.922Z,998.45
2017-03-20T09:24:03.450Z,998.51
2017-03-20T09:25:03.982Z,998.53
2017-03-20T09:26:04.515Z,998.47
2017-03-20T09:27:05.048Z,998.51
2017-03-20T09:28:05.736Z,998.49
2017-03-20T09:29:06.113Z,998.48
2017-03-20T09:30:06.644Z,998.47
2017-03-20T09:31:07.182Z,998.48
2017-03-20T09:32:07.722Z,998.46
2017-03-20T09:33:08.259Z,998.44
2017-03-20T09:34:08.784Z,998.46
2017-03-20T09:35:09.324Z,998.45
2017-03-20T09:36:09.859Z,998.42
2017-03-20T09:37:10.392Z,998.48
2017-03-20T09:38:10.929Z,998.43
2017-03-20T09:39:11.463Z,998.38
2017-03-20T09:40:12.006Z,998.36
2017-03-20T09:41:12.530Z,998.38
2017-03-20T09:42:13.057Z,998.37
2017-03-20T09:43:13.595Z,998.38
2017-03-20T09:44:14.131Z,998.34
2017-03-20T09:45:14.658Z,998.34
2017-03-20T09:46:15.194Z,998.31
2017-03-20T09:47:15.726Z,998.33
2017-03-20T09:48:16.409Z,998.34
2017-03-20T09:49:16.796Z,998.31
2017-03-20T09:50:17.327Z,998.35
2017-03-20T09:51:17.858Z,998.34
2017-03-20T09:52:18.392Z,998.33
2017-03-20T09:53:18.925Z,998.35
2017-03-20T09:54:19.457Z,998.42
2017-03-20T09:55:19.991Z,998.45
2017-03-20T09:56:20.526Z,998.38
2017-03-20T09:57:21.054Z,998.35
2017-03-20T09:59:22.120Z,998.41
2017-03-20T10:00:22.659Z,998.45
2017-03-20T10:01:23.184Z,998.46
2017-03-20T10:02:23.719Z,998.42
2017-03-20T10:03:24.253Z,998.39
2017-03-20T10:04:24.782Z,998.36
2017-03-20T10:05:25.321Z,998.36
2017-03-20T10:06:25.853Z,998.40
2017-03-20T10:07:26.390Z,998.39
2017-03-20T10:08:26.919Z,998.35
2017-03-20T10:09:27.447Z,998.33
2017-03-20T10:10:27.991Z,998.30
2017-03-20T10:11:28.516Z,998.38
2017-03-20T10:12:29.050Z,998.37
2017-03-20T10:13:29.588Z,998.39
2017-03-20T10:14:30.123Z,998.40
2017-03-20T10:15:30.802Z,998.34
2017-03-20T10:16:31.188Z,998.37
2017-03-20T10:17:31.722Z,998.43
2017-03-20T10:18:32.264Z,998.37
2017-03-20T10:19:32.787Z,998.44
2017-03-20T10:20:33.348Z,998.34
2017-03-20T10:21:33.851Z,998.37
2017-03-20T10:22:34.385Z,998.33
2017-03-20T10:23:34.919Z,998.34
2017-03-20T10:24:35.452Z,998.33
2017-03-20T10:25:35.988Z,998.35
2017-03-20T10:26:36.516Z,998.36
2017-03-20T10:27:37.054Z,998.29
2017-03-20T10:28:37.585Z,998.31
2017-03-20T10:29:38.118Z,998.31
2017-03-20T10:30:38.644Z,998.29
2017-03-20T10:31:39.182Z,998.35
2017-03-20T10:32:39.864Z,998.27
2017-03-20T10:33:40.252Z,998.25
2017-03-20T10:34:40.783Z,998.28
2017-03-20T10:35:41.314Z,998.24
2017-03-20T10:36:41.847Z,998.26
2017-03-20T10:37:42.386Z,998.29
2017-03-20T10:38:42.923Z,998.19
2017-03-20T10:39:43.454Z,998.21
2017-03-20T10:40:43.991Z,998.27
2017-03-20T10:41:44.514Z,998.17
2017-03-20T10:42:45.044Z,998.21
2017-03-20T10:43:45.581Z,998.16
2017-03-20T10:44:46.113Z,998.17
2017-03-20T10:45:46.651Z,998.17
2017-03-20T10:46:47.181Z,998.18
2017-03-20T10:47:47.716Z,998.13
2017-03-20T10:48:48.250Z,998.21
2017-03-20T10:49:48.786Z,998.20
2017-03-20T10:50:49.317Z,998.16
2017-03-20T10:51:49.856Z,998.17
2017-03-20T10:52:50.394Z,998.15
2017-03-20T10:53:50.930Z,998.18
2017-03-20T10:54:51.467Z,998.21
2017-03-20T10:55:51.999Z,998.20
2017-03-20T10:56:52.527Z,998.25
2017-03-20T10:57:53.063Z,998.20
2017-03-20T10:58:53.591Z,998.14
2017-03-20T10:59:54.128Z,998.23
2017-03-20T11:00:54.675Z,998.21
2017-03-20T11:01:55.219Z,998.16
2017-03-20T11:02:55.729Z,998.17
2017-03-20T11:03:56.257Z,998.14
2017-03-20T11:04:56.788Z,998.14
2017-03-20T11:05:57.324Z,998.15
2017-03-20T11:06:57.855Z,998.13
2017-03-20T11:07:58.388Z,998.14
2017-03-20T11:08:58.919Z,998.09
2017-03-20T11:09:59.455Z,998.12
2017-03-20T11:10:59.988Z,998.14
2017-03-20T11:12:00.518Z,998.17
2017-03-20T11:13:01.054Z,998.19
2017-03-20T11:14:01.582Z,998.13
2017-03-20T11:15:02.269Z,998.09
2017-03-20T11:16:02.657Z,998.11
2017-03-20T11:17:03.185Z,998.06
2017-03-20T11:18:03.713Z,998.06
2017-03-20T11:19:04.247Z,998.09
2017-03-20T11:20:04.774Z,998.11
2017-03-20T11:21:05.311Z,998.06
2017-03-20T11:22:05.845Z,998.08
2017-03-20T11:23:06.371Z,998.03
2017-03-20T11:24:06.905Z,998.05
2017-03-20T11:25:07.432Z,998.02
2017-03-20T11:26:07.967Z,998.05
2017-03-20T11:27:08.507Z,998.02
2017-03-20T11:28:09.037Z,997.97
2017-03-20T11:29:09.566Z,998.04
2017-03-20T11:30:10.100Z,998.02
2017-03-20T11:31:10.633Z,997.98
2017-03-20T11:32:11.171Z,997.99
2017-03-20T11:33:11.705Z,997.98
2017-03-20T11:34:12.242Z,998.01
2017-03-20T11:35:12.784Z,997.99
2017-03-20T11:36:13.320Z,997.95
2017-03-20T11:37:13.999Z,997.90
2017-03-20T11:38:14.381Z,997.91
2017-03-20T11:39:14.911Z,997.87
2017-03-20T11:40:15.447Z,997.88
2017-03-20T11:41:15.980Z,997.81
2017-03-20T11:42:16.516Z,997.83
2017-03-20T11:43:17.046Z,997.81
2017-03-20T11:44:17.581Z,997.85
2017-03-20T11:45:18.110Z,997.80
2017-03-20T11:46:18.639Z,997.82
2017-03-20T11:47:19.329Z,997.78
2017-03-20T11:48:19.707Z,997.74
2017-03-20T11:49:20.242Z,997.76
2017-03-20T11:50:20.917Z,997.79
2017-03-20T11:51:21.315Z,997.73
2017-03-20T11:52:21.838Z,997.72
2017-03-20T11:53:22.370Z,997.72
2017-03-20T11:54:22.902Z,997.71
2017-03-20T11:55:23.585Z,997.72
2017-03-20T11:56:23.967Z,997.72
2017-03-20T11:57:24.499Z,997.74
2017-03-20T11:58:25.034Z,997.74
2017-03-20T11:59:25.566Z,997.73
2017-03-20T12:00:26.101Z,997.71
2017-03-20T12:01:26.634Z,997.70
2017-03-20T12:02:27.165Z,997.74
2017-03-20T12:03:27.707Z,997.69
2017-03-20T12:04:28.230Z,997.67
2017-03-20T12:05:28.760Z,997.69
2017-03-20T12:06:29.303Z,997.69
2017-03-20T12:07:29.844Z,997.68
2017-03-20T12:08:30.366Z,997.67
2017-03-20T12:09:30.897Z,997.63
2017-03-20T12:10:31.427Z,997.63
2017-03-20T12:11:32.121Z,997.60
2017-03-20T12:12:32.497Z,997.53
2017-03-20T12:13:33.185Z,997.51
2017-03-20T12:14:33.718Z,997.49
2017-03-20T12:15:34.108Z,997.50
2017-03-20T12:16:34.644Z,997.46
2017-03-20T12:17:35.180Z,997.50
2017-03-20T12:18:35.713Z,997.46
2017-03-20T12:19:36.244Z,997.49
2017-03-20T12:20:36.779Z,997.43
2017-03-20T12:21:37.308Z,997.45
2017-03-20T12:22:37.845Z,997.46
2017-03-20T12:23:38.388Z,997.48
2017-03-20T12:24:38.912Z,997.49
2017-03-20T12:25:39.446Z,997.43
2017-03-20T12:26:39.974Z,997.40
2017-03-20T12:27:40.505Z,997.42
2017-03-20T12:28:41.038Z,997.44
2017-03-20T12:29:41.570Z,997.40
2017-03-20T12:30:42.108Z,997.39
2017-03-20T12:31:42.634Z,997.38
2017-03-20T12:32:43.316Z,997.42
2017-03-20T12:33:43.701Z,997.35
2017-03-20T12:34:44.241Z,997.32
2017-03-20T12:35:44.922Z,997.24
2017-03-20T12:36:45.303Z,997.24